Time;durP1;ratioP1;P1;durP2;ratioP2;P2;SDS_P1;SDS_P2;PMS_P1;PMS_P2;Temp;Humidity;BMP_temperature;BMP_pressure;BME280_temperature;BME280_humidity;BME280_pressure;Samples;Min_cycle;Max_cycle;Signal;HPM_P1;HPM_P2
2023/08/08 04:22:33;;;;;;;4.93;3.30;;;;;;;13.46;100.00;100330.50;5089379;28;20737;-68
2023/08/08 04:24:58;;;;;;;4.85;2.90;;;;;;;13.48;100.00;100330.28;5089410;28;20101;-68
2023/08/08 04:27:24;;;;;;;5.85;2.60;;;;;;;13.50;100.00;100344.34;5089254;28;20044;-68
2023/08/08 04:29:49;;;;;;;4.13;2.60;;;;;;;13.52;100.00;100347.63;5088834;28;20040;-69
2023/08/08 04:32:15;;;;;;;6.43;3.25;;;;;;;13.52;100.00;100353.00;5089255;28;20123;-68
2023/08/08 04:34:40;;;;;;;4.35;2.58;;;;;;;13.49;100.00;100358.69;5089223;28;20031;-68
2023/08/08 04:37:06;;;;;;;11.70;5.00;;;;;;;13.50;100.00;100352.34;5089112;28;20044;-69
2023/08/08 04:39:31;;;;;;;5.88;3.03;;;;;;;13.53;100.00;100349.28;5088908;28;20044;-68
2023/08/08 04:41:56;;;;;;;5.78;3.35;;;;;;;13.53;100.00;100351.97;5087696;28;20041;-68
2023/08/08 04:44:22;;;;;;;5.20;2.80;;;;;;;13.57;100.00;100356.75;5088828;28;20032;-69
2023/08/08 04:46:47;;;;;;;6.30;2.78;;;;;;;13.61;100.00;100357.19;5088917;28;20036;-68
2023/08/08 04:49:13;;;;;;;6.35;2.30;;;;;;;13.66;100.00;100360.13;5088708;28;20040;-68
2023/08/08 04:51:38;;;;;;;3.08;1.70;;;;;;;13.69;100.00;100349.06;5088832;28;20032;-69
2023/08/08 04:54:04;;;;;;;5.45;2.45;;;;;;;13.74;100.00;100354.66;5088777;28;20042;-69
2023/08/08 04:56:29;;;;;;;4.45;2.83;;;;;;;13.77;100.00;100351.59;5088856;28;20487;-69
2023/08/08 04:58:54;;;;;;;3.92;2.10;;;;;;;13.82;100.00;100359.03;5088369;28;20048;-68
2023/08/08 05:01:20;;;;;;;5.38;2.50;;;;;;;13.84;100.00;100360.53;5088653;28;20064;-69
2023/08/08 05:03:46;;;;;;;6.70;2.45;;;;;;;13.91;100.00;100354.41;5088651;28;20512;-69
2023/08/08 05:06:12;;;;;;;6.95;2.50;;;;;;;13.92;100.00;100358.72;5088617;28;20047;-69
2023/08/08 05:08:37;;;;;;;3.60;2.25;;;;;;;13.98;100.00;100358.78;5088258;28;20113;-69
2023/08/08 05:11:02;;;;;;;7.88;2.50;;;;;;;14.04;100.00;100365.22;5088502;28;20459;-68
2023/08/08 05:13:28;;;;;;;7.13;2.10;;;;;;;14.06;100.00;100358.66;5088461;28;20521;-68
2023/08/08 05:15:53;;;;;;;8.25;2.60;;;;;;;14.10;99.79;100361.78;5088265;28;20475;-68
2023/08/08 05:18:19;;;;;;;3.83;2.03;;;;;;;14.11;99.98;100363.44;5081200;28;20040;-68
2023/08/08 05:20:44;;;;;;;4.07;2.40;;;;;;;14.12;99.27;100365.91;5087308;28;20043;-68
2023/08/08 05:23:09;;;;;;;5.65;2.38;;;;;;;14.13;99.35;100364.88;5088343;28;20123;-67
2023/08/08 05:25:35;;;;;;;7.70;3.80;;;;;;;14.14;99.57;100360.34;5088246;28;20131;-66
2023/08/08 05:28:00;;;;;;;6.07;4.40;;;;;;;14.17;99.13;100357.31;5087929;28;20086;-67
2023/08/08 05:30:26;;;;;;;5.85;3.20;;;;;;;14.30;98.58;100354.72;5088142;28;20032;-67
2023/08/08 05:32:51;;;;;;;6.10;2.92;;;;;;;14.37;98.14;100357.47;5080844;28;20040;-67
2023/08/08 05:35:16;;;;;;;4.72;2.33;;;;;;;14.33;98.21;100350.81;5074683;28;20040;-67
2023/08/08 05:37:42;;;;;;;5.13;2.60;;;;;;;14.36;98.23;100345.09;5074572;28;20044;-67
2023/08/08 05:40:08;;;;;;;7.10;3.13;;;;;;;14.37;97.71;100350.25;5074248;28;20032;-66
2023/08/08 05:42:33;;;;;;;3.05;2.05;;;;;;;14.46;97.62;100350.94;5074478;28;20392;-67
2023/08/08 05:44:59;;;;;;;5.22;2.15;;;;;;;14.53;97.69;100351.81;5074428;28;20491;-67
2023/08/08 05:47:24;;;;;;;4.35;2.58;;;;;;;14.61;96.23;100354.34;5074415;28;20115;-67
2023/08/08 05:49:49;;;;;;;6.00;2.35;;;;;;;14.74;95.65;100355.47;5074098;28;20060;-67
2023/08/08 05:52:15;;;;;;;6.20;2.50;;;;;;;14.79;95.76;100356.50;5074299;28;20404;-65
2023/08/08 05:54:40;;;;;;;2.90;1.85;;;;;;;14.87;95.20;100356.38;5074259;28;20049;-67
2023/08/08 05:57:06;;;;;;;4.53;2.38;;;;;;;14.91;95.87;100354.09;5074121;28;20045;-67
2023/08/08 05:59:31;;;;;;;3.13;1.80;;;;;;;14.93;94.37;100354.72;5073858;28;20036;-67
2023/08/08 06:01:58;;;;;;;4.88;2.03;;;;;;;14.99;93.88;100347.72;5072860;28;20473;-67
2023/08/08 06:04:24;;;;;;;4.43;2.17;;;;;;;15.03;93.82;100349.00;5074088;28;20116;-67
2023/08/08 06:06:49;;;;;;;4.25;2.25;;;;;;;15.05;93.93;100347.75;5073916;28;20310;-67
2023/08/08 06:09:15;;;;;;;3.28;2.08;;;;;;;15.12;93.35;100356.66;5073770;28;20059;-67
2023/08/08 06:11:41;;;;;;;2.85;1.92;;;;;;;15.17;94.22;100364.13;5073987;28;20037;-67
2023/08/08 06:14:06;;;;;;;3.60;1.70;;;;;;;15.21;93.41;100360.03;5073775;28;20024;-67
2023/08/08 06:16:31;;;;;;;2.72;1.50;;;;;;;15.28;92.60;100355.50;5073757;28;20048;-66
2023/08/08 06:18:57;;;;;;;4.18;2.00;;;;;;;15.38;91.30;100358.63;5073497;28;20051;-67
2023/08/08 06:21:22;;;;;;;3.88;2.58;;;;;;;15.47;90.34;100353.91;5073624;28;20036;-66
2023/08/08 06:23:49;;;;;;;3.65;2.13;;;;;;;15.66;88.91;100363.09;5066975;28;20083;-66
2023/08/08 06:26:14;;;;;;;4.57;2.28;;;;;;;15.67;89.08;100349.44;5062991;28;20029;-67
2023/08/08 06:28:39;;;;;;;3.15;1.83;;;;;;;15.78;87.71;100353.41;5062789;28;20509;-67
2023/08/08 06:31:05;;;;;;;3.83;1.85;;;;;;;15.89;87.49;100347.41;5062336;28;20495;-67
2023/08/08 06:33:30;;;;;;;2.88;1.98;;;;;;;16.02;87.69;100355.47;5064118;28;20482;-67
2023/08/08 06:35:56;;;;;;;5.78;2.42;;;;;;;16.06;87.84;100352.38;5062592;28;20529;-66
2023/08/08 06:38:21;;;;;;;3.97;1.77;;;;;;;16.10;86.22;100354.44;5061351;28;20144;-67
2023/08/08 06:40:47;;;;;;;2.85;1.70;;;;;;;16.14;84.61;100354.84;5063933;28;20032;-66
2023/08/08 06:43:13;;;;;;;4.10;1.70;;;;;;;16.25;82.30;100365.00;5061888;28;20091;-66
2023/08/08 06:45:39;;;;;;;3.00;1.80;;;;;;;16.30;83.09;100351.75;5061987;28;20398;-66
2023/08/08 06:48:05;;;;;;;3.60;1.90;;;;;;;16.36;82.34;100350.06;5063285;28;20044;-66
2023/08/08 06:50:30;;;;;;;2.17;1.38;;;;;;;16.35;84.49;100345.75;5061637;28;20040;-66
2023/08/08 06:52:55;;;;;;;2.70;1.83;;;;;;;16.37;84.05;100344.50;5063189;28;20047;-66
2023/08/08 06:55:21;;;;;;;3.95;1.80;;;;;;;16.44;83.22;100339.13;5062775;28;20557;-66
2023/08/08 06:57:46;;;;;;;2.75;1.50;;;;;;;16.54;82.61;100342.19;5061622;28;20060;-66
2023/08/08 07:00:13;;;;;;;4.70;1.63;;;;;;;16.62;83.00;100341.13;5063638;28;20071;-67
2023/08/08 07:02:39;;;;;;;2.53;1.60;;;;;;;16.72;83.10;100342.41;5062386;28;20041;-65
2023/08/08 07:05:04;;;;;;;5.45;2.13;;;;;;;16.79;81.69;100337.81;5060152;28;20054;-65
2023/08/08 07:07:32;;;;;;;5.60;2.97;;;;;;;16.91;80.59;100340.69;5063488;28;20036;-66
2023/08/08 07:09:58;;;;;;;3.05;1.70;;;;;;;16.93;81.99;100337.78;5061872;28;20029;-66
2023/08/08 07:12:23;;;;;;;2.42;1.60;;;;;;;16.99;82.21;100339.63;5060533;28;20040;-67
2023/08/08 07:14:48;;;;;;;2.33;1.40;;;;;;;17.04;77.69;100335.25;5063366;28;20124;-65
2023/08/08 07:17:14;;;;;;;3.30;1.67;;;;;;;17.12;76.90;100336.06;5061423;28;20098;-66
2023/08/08 07:19:41;;;;;;;4.38;1.60;;;;;;;17.16;78.95;100331.91;5061946;28;20123;-67
2023/08/08 07:22:06;;;;;;;2.38;1.60;;;;;;;17.28;75.58;100330.19;5063081;28;20031;-66
2023/08/08 07:24:32;;;;;;;3.53;1.65;;;;;;;17.31;77.43;100325.19;5061046;28;20037;-66
2023/08/08 07:26:59;;;;;;;2.83;1.60;;;;;;;17.35;75.39;100336.38;5062249;28;20112;-66
2023/08/08 07:29:25;;;;;;;3.17;1.60;;;;;;;17.39;77.69;100332.19;5062509;28;20075;-67
2023/08/08 07:31:52;;;;;;;3.45;1.90;;;;;;;17.33;77.12;100330.34;5043165;28;20647;-67
2023/08/08 07:34:18;;;;;;;3.15;1.77;;;;;;;17.35;75.63;100331.81;5062259;28;20487;-66
2023/08/08 07:36:43;;;;;;;6.72;1.80;;;;;;;17.36;75.74;100325.38;5062546;28;20087;-66
2023/08/08 07:39:09;;;;;;;2.28;1.30;;;;;;;17.41;77.60;100330.13;5060545;28;20116;-66
2023/08/08 07:41:34;;;;;;;3.42;1.90;;;;;;;17.47;76.70;100334.63;5062531;28;20395;-67
2023/08/08 07:44:00;;;;;;;3.92;1.75;;;;;;;17.53;74.03;100336.44;5061898;28;20546;-66
2023/08/08 07:46:25;;;;;;;4.05;1.58;;;;;;;17.55;73.89;100323.63;5063491;28;20399;-66
2023/08/08 07:48:51;;;;;;;3.38;1.80;;;;;;;17.61;72.91;100328.13;5062549;28;20052;-65
2023/08/08 07:51:16;;;;;;;2.85;1.55;;;;;;;17.69;72.89;100324.34;5059928;28;20429;-69
2023/08/08 07:53:41;;;;;;;3.65;1.70;;;;;;;17.78;76.03;100333.00;5061538;28;20033;-70
2023/08/08 07:56:07;;;;;;;4.30;1.50;;;;;;;17.80;73.18;100325.53;5062315;28;20476;-68
2023/08/08 07:58:32;;;;;;;3.75;1.70;;;;;;;17.90;73.03;100334.78;5060347;28;20037;-68
2023/08/08 08:00:59;;;;;;;4.15;1.58;;;;;;;17.96;71.49;100337.66;5063445;28;20040;-68
2023/08/08 08:03:25;;;;;;;2.05;1.20;;;;;;;17.84;72.74;100334.84;5072162;28;20041;-68
2023/08/08 08:05:51;;;;;;;2.38;1.42;;;;;;;17.80;72.02;100337.16;5071969;28;20079;-67
2023/08/08 08:08:16;;;;;;;3.10;1.58;;;;;;;17.84;72.51;100335.66;5071729;28;20072;-68
2023/08/08 08:10:41;;;;;;;2.92;1.50;;;;;;;17.89;76.48;100329.63;5071833;28;20112;-69
2023/08/08 08:13:07;;;;;;;1.73;1.20;;;;;;;18.05;73.46;100323.66;5071941;28;20056;-69
2023/08/08 08:15:33;;;;;;;1.60;1.38;;;;;;;18.18;70.02;100320.84;5064079;28;20556;-69
2023/08/08 08:17:58;;;;;;;4.53;1.40;;;;;;;18.28;70.01;100316.84;5062013;28;20044;-69
2023/08/08 08:20:25;;;;;;;2.20;1.20;;;;;;;18.30;69.23;100331.75;5060271;28;20067;-68
2023/08/08 08:22:50;;;;;;;2.17;1.40;;;;;;;18.30;70.50;100318.28;5062055;28;20049;-69
2023/08/08 08:25:15;;;;;;;3.40;1.35;;;;;;;18.40;70.55;100320.47;5061422;28;20060;-69
2023/08/08 08:27:41;;;;;;;4.53;2.42;;;;;;;18.43;69.39;100320.00;5060555;28;20083;-69
2023/08/08 08:30:09;;;;;;;3.03;1.55;;;;;;;18.49;68.84;100312.91;5056676;28;20403;-69
2023/08/08 08:32:40;;;;;;;3.53;1.40;;;;;;;18.60;67.35;100312.19;5051639;28;20048;-69
2023/08/08 08:35:07;;;;;;;3.83;1.50;;;;;;;18.65;69.18;100318.56;5051560;28;20048;-68
2023/08/08 08:37:33;;;;;;;2.55;1.95;;;;;;;18.80;68.92;100315.50;5051757;28;20033;-69
2023/08/08 08:39:59;;;;;;;4.18;1.33;;;;;;;18.84;68.12;100311.28;5051320;28;20041;-69
2023/08/08 08:42:27;;;;;;;2.55;1.10;;;;;;;19.00;66.77;100314.44;5054864;28;20161;-68
2023/08/08 08:44:57;;;;;;;2.45;1.45;;;;;;;19.11;68.17;100321.78;5071631;28;20044;-68
2023/08/08 08:47:24;;;;;;;7.88;1.73;;;;;;;19.18;67.59;100315.25;5071546;28;20043;-69
2023/08/08 08:49:52;;;;;;;1.88;1.30;;;;;;;19.44;64.77;100315.94;5071257;28;20032;-69
2023/08/08 08:52:17;;;;;;;;;;;;;;;19.61;63.71;100310.72;5071819;28;20033;-70
2023/08/08 08:54:42;;;;;;;1.80;1.17;;;;;;;19.70;66.55;100314.75;5071659;28;19924;-70
2023/08/08 08:57:09;;;;;;;3.08;1.40;;;;;;;19.87;65.77;100314.88;5071453;28;20101;-68
2023/08/08 08:59:35;;;;;;;2.53;1.33;;;;;;;19.91;63.23;100311.50;5071203;28;20048;-69
2023/08/08 09:02:00;;;;;;;3.90;1.17;;;;;;;19.94;64.48;100300.19;5071427;28;20387;-70
2023/08/08 09:04:29;;;;;;;3.17;1.45;;;;;;;19.99;61.59;100299.50;5071418;28;20062;-69
2023/08/08 09:06:55;;;;;;;2.38;1.30;;;;;;;20.13;60.44;100300.94;5071141;28;20499;-69
2023/08/08 09:09:22;;;;;;;4.60;1.40;;;;;;;20.30;61.88;100296.47;5074685;28;20043;-69
2023/08/08 09:11:50;;;;;;;2.83;1.75;;;;;;;20.31;59.83;100291.88;5075352;28;20075;-69
2023/08/08 09:14:21;;;;;;;3.92;1.58;;;;;;;20.40;60.77;100297.75;5075288;28;20491;-69
2023/08/08 09:16:47;;;;;;;2.75;1.60;;;;;;;20.31;60.75;100292.69;5074936;28;20064;-69
2023/08/08 09:19:14;;;;;;;1.67;1.20;;;;;;;20.48;57.52;100300.16;5074690;28;20032;-70
2023/08/08 09:21:39;;;;;;;2.13;1.30;;;;;;;20.62;59.38;100303.41;5074741;28;20294;-70
2023/08/08 09:24:05;;;;;;;2.05;1.30;;;;;;;20.63;59.83;100292.34;5074855;28;20045;-71
2023/08/08 09:26:30;;;;;;;4.60;1.35;;;;;;;20.70;56.99;100287.63;5074809;28;20039;-69
2023/08/08 09:28:56;;;;;;;2.80;1.45;;;;;;;20.84;57.52;100293.59;5074576;28;20443;-70
2023/08/08 09:31:25;;;;;;;3.60;1.42;;;;;;;20.91;57.17;100279.91;5074689;28;20032;-70
2023/08/08 09:33:51;;;;;;;2.70;1.30;;;;;;;20.89;58.42;100282.06;5074654;28;20032;-70
2023/08/08 09:36:19;;;;;;;2.50;1.27;;;;;;;21.06;57.69;100283.78;5074550;28;20526;-70
2023/08/08 09:38:45;;;;;;;2.05;1.40;;;;;;;21.32;56.00;100276.97;5074327;28;20063;-69
2023/08/08 09:41:11;;;;;;;5.28;1.50;;;;;;;21.51;54.94;100274.84;5074602;28;20040;-69
2023/08/08 09:43:37;;;;;;;3.10;1.52;;;;;;;21.64;52.95;100285.38;5073341;28;20475;-70
2023/08/08 09:46:02;;;;;;;3.22;1.40;;;;;;;21.76;53.78;100266.34;5074563;28;20067;-70
2023/08/08 09:48:32;;;;;;;2.25;1.20;;;;;;;21.94;56.29;100270.69;5074289;28;20037;-70
2023/08/08 09:51:02;;;;;;;1.90;1.30;;;;;;;22.24;54.92;100267.66;5080756;28;20028;-70
2023/08/08 09:53:29;;;;;;;3.38;1.30;;;;;;;22.26;52.38;100275.53;5074488;28;20032;-70
2023/08/08 09:55:55;;;;;;;2.73;1.37;;;;;;;22.24;53.07;100267.66;5074472;28;20028;-70
2023/08/08 09:58:21;;;;;;;4.70;1.30;;;;;;;22.25;51.07;100269.28;5073954;28;20052;-70
2023/08/08 10:00:50;;;;;;;2.70;1.30;;;;;;;22.23;51.83;100276.03;5074222;28;20036;-69
2023/08/08 10:03:19;;;;;;;3.92;1.30;;;;;;;22.64;52.04;100261.94;5074188;28;20495;-69
2023/08/08 10:05:45;;;;;;;2.05;0.95;;;;;;;22.81;51.02;100270.00;5074091;28;20480;-70
2023/08/08 10:08:11;;;;;;;2.38;1.50;;;;;;;22.77;48.36;100268.91;5074048;28;20553;-70
2023/08/08 10:10:37;;;;;;;3.40;1.27;;;;;;;22.94;51.44;100261.50;5074038;28;20594;-68
2023/08/08 10:13:03;;;;;;;2.97;1.33;;;;;;;23.28;48.86;100270.31;5074046;28;20038;-70
2023/08/08 10:15:29;;;;;;;1.85;1.10;;;;;;;23.58;51.72;100265.41;5073959;28;20070;-69
2023/08/08 10:17:58;;;;;;;2.08;1.40;;;;;;;23.59;46.93;100261.63;5073856;28;20041;-69
2023/08/08 10:20:25;;;;;;;1.92;1.10;;;;;;;23.35;47.89;100267.41;5073476;28;20036;-69
2023/08/08 10:22:54;;;;;;;5.57;1.80;;;;;;;23.60;47.16;100258.63;5073858;28;20074;-70
2023/08/08 10:25:27;;;;;;;2.50;1.63;;;;;;;24.05;48.85;100266.34;5072951;28;20040;-69
2023/08/08 10:28:14;;;;;;;1.55;1.15;;;;;;;24.24;46.32;100257.78;5073657;28;20044;-69
2023/08/08 10:30:52;;;;;;;2.53;0.90;;;;;;;24.35;45.18;100254.88;5073566;28;20048;-69
2023/08/08 10:33:20;;;;;;;1.48;1.00;;;;;;;24.70;47.38;100258.03;5073697;28;20044;-69
2023/08/08 10:36:04;;;;;;;1.70;1.00;;;;;;;25.05;45.85;100254.66;5073436;28;20047;-68
2023/08/08 10:38:46;;;;;;;1.48;0.95;;;;;;;25.11;44.29;100256.31;5073274;28;20111;-70
2023/08/08 10:41:15;;;;;;;1.83;0.93;;;;;;;25.09;43.33;100245.66;5073453;28;20523;-70
2023/08/08 10:43:52;;;;;;;1.17;1.00;;;;;;;24.49;43.72;100255.22;5073405;28;20035;-70
2023/08/08 10:46:31;;;;;;;2.55;0.90;;;;;;;24.02;44.09;100253.28;5073355;28;20456;-69
2023/08/08 10:48:59;;;;;;;2.65;1.23;;;;;;;24.12;43.35;100266.13;5073113;28;20493;-69
2023/08/08 10:51:43;;;;;;;2.90;1.10;;;;;;;24.70;43.16;100247.16;5071948;28;20094;-69
2023/08/08 10:54:14;;;;;;;1.90;0.90;;;;;;;25.29;41.78;100250.34;5073204;28;20041;-70
2023/08/08 10:56:39;;;;;;;1.88;1.00;;;;;;;25.56;41.13;100249.25;5073186;28;20483;-70
2023/08/08 10:59:17;;;;;;;1.52;0.90;;;;;;;25.95;40.18;100249.53;5072934;28;20115;-69
2023/08/08 11:01:45;;;;;;;1.95;1.05;;;;;;;26.34;39.73;100257.94;5073113;28;20044;-70
2023/08/08 11:04:11;;;;;;;1.70;0.90;;;;;;;26.12;35.66;100249.25;5073031;28;20028;-69
2023/08/08 11:06:37;;;;;;;1.88;1.02;;;;;;;26.35;37.48;100245.13;5072908;28;20398;-68
2023/08/08 11:09:06;;;;;;;1.15;0.80;;;;;;;26.31;36.91;100258.50;5072619;28;20028;-69
2023/08/08 11:11:41;;;;;;;1.63;0.95;;;;;;;26.49;37.46;100251.66;5072877;28;20064;-69
2023/08/08 11:14:10;;;;;;;2.53;0.80;;;;;;;27.10;37.03;100248.66;5072729;28;20067;-71
2023/08/08 11:16:36;;;;;;;1.65;0.90;;;;;;;27.40;37.11;100263.25;5072605;28;20047;-69
2023/08/08 11:19:02;;;;;;;1.38;0.88;;;;;;;27.59;34.04;100254.06;5072577;28;20032;-70
2023/08/08 11:21:28;;;;;;;1.00;0.70;;;;;;;27.31;36.53;100247.41;5072664;28;20406;-70
2023/08/08 11:23:53;;;;;;;1.92;0.82;;;;;;;27.31;34.84;100243.88;5072557;28;20131;-70
2023/08/08 11:26:19;;;;;;;1.10;0.68;;;;;;;27.52;35.58;100248.09;5072524;28;20044;-69
2023/08/08 11:28:53;;;;;;;1.90;0.70;;;;;;;27.48;35.67;100254.41;5072350;28;20256;-70
2023/08/08 11:31:22;;;;;;;3.30;1.02;;;;;;;27.48;34.73;100257.16;5071879;28;20041;-70
2023/08/08 11:33:48;;;;;;;1.75;0.80;;;;;;;27.79;35.70;100250.38;5072362;28;20040;-70
2023/08/08 11:36:14;;;;;;;2.57;0.90;;;;;;;27.70;35.18;100252.06;5072295;28;20043;-70
2023/08/08 11:38:43;;;;;;;1.08;0.73;;;;;;;27.78;35.40;100250.66;5070916;28;20036;-70
2023/08/08 11:41:10;;;;;;;2.28;1.05;;;;;;;27.58;36.15;100259.78;5072295;28;20457;-69
2023/08/08 11:43:37;;;;;;;1.63;0.98;;;;;;;26.93;35.61;100254.47;5072248;28;20043;-69
2023/08/08 11:46:03;;;;;;;0.90;0.70;;;;;;;26.77;36.89;100252.91;5072264;28;20044;-69
2023/08/08 11:48:28;;;;;;;2.15;1.02;;;;;;;26.33;36.67;100239.09;5072013;28;20075;-70
2023/08/08 11:50:54;;;;;;;1.98;0.98;;;;;;;26.31;38.72;100235.84;5072283;28;20641;-69
2023/08/08 11:53:19;;;;;;;2.00;0.85;;;;;;;25.88;39.88;100236.19;5072229;28;20450;-70
2023/08/08 11:55:46;;;;;;;0.85;0.70;;;;;;;26.29;39.97;100238.03;5072050;28;20051;-69
2023/08/08 11:58:14;;;;;;;2.03;1.00;;;;;;;26.17;38.40;100247.34;5071858;28;20036;-69
2023/08/08 12:00:42;;;;;;;0.70;0.70;;;;;;;26.56;38.59;100226.78;5072165;28;20810;-70
2023/08/08 12:03:09;;;;;;;1.25;1.10;;;;;;;26.90;38.77;100229.63;5071934;28;20040;-70
2023/08/08 12:05:40;;;;;;;1.80;0.98;;;;;;;27.02;39.25;100233.63;5071900;28;20040;-70
2023/08/08 12:08:06;;;;;;;2.65;1.00;;;;;;;26.99;38.56;100230.63;5071768;28;20441;-69
2023/08/08 12:10:32;;;;;;;1.90;0.90;;;;;;;27.02;39.05;100224.63;5071995;28;20494;-69
2023/08/08 12:12:59;;;;;;;0.80;0.77;;;;;;;27.52;38.66;100230.88;5070846;28;20036;-69
2023/08/08 12:15:35;;;;;;;1.67;0.70;;;;;;;27.86;38.70;100228.13;5067794;28;20091;-69
2023/08/08 12:18:04;;;;;;;1.70;1.00;;;;;;;28.57;36.00;100212.88;5064817;28;20056;-70
2023/08/08 12:20:31;;;;;;;2.13;0.80;;;;;;;28.39;36.25;100223.47;5060190;28;20037;-69
2023/08/08 12:22:57;;;;;;;0.90;0.60;;;;;;;28.38;37.17;100229.25;5069171;28;20040;-70
2023/08/08 12:25:23;;;;;;;2.75;0.90;;;;;;;28.74;34.98;100207.69;5071680;28;20154;-69
2023/08/08 12:27:49;;;;;;;1.33;0.70;;;;;;;28.83;34.07;100218.81;5071783;28;20082;-69
2023/08/08 12:30:14;;;;;;;2.13;1.13;;;;;;;29.29;33.64;100221.75;5071523;28;20037;-69
2023/08/08 12:32:40;;;;;;;3.53;0.80;;;;;;;28.70;32.92;100219.56;5071557;28;20495;-69
2023/08/08 12:35:06;;;;;;;1.02;0.75;;;;;;;29.21;32.40;100205.94;5071606;28;20041;-68
2023/08/08 12:37:32;;;;;;;0.65;0.65;;;;;;;28.73;33.79;100208.00;5071684;28;20035;-68
2023/08/08 12:39:57;;;;;;;1.35;1.00;;;;;;;28.48;34.19;100201.72;5070145;28;20040;-68
2023/08/08 12:42:23;;;;;;;1.10;0.68;;;;;;;28.42;32.57;100210.31;5069200;28;20117;-68
2023/08/08 12:44:51;;;;;;;1.58;0.70;;;;;;;28.64;32.42;100203.19;5057091;28;20040;-67
2023/08/08 12:47:17;;;;;;;0.95;0.75;;;;;;;28.53;33.12;100192.63;5055447;28;20044;-68
2023/08/08 12:49:43;;;;;;;2.83;0.88;;;;;;;28.38;32.01;100199.94;5055232;28;20045;-68
2023/08/08 12:52:09;;;;;;;1.40;0.82;;;;;;;29.00;33.49;100207.38;5055477;28;20099;-68
2023/08/08 12:54:35;;;;;;;1.85;0.80;;;;;;;28.89;32.84;100190.25;5057119;28;20472;-69
2023/08/08 12:57:01;;;;;;;1.88;0.90;;;;;;;29.53;33.51;100193.38;5058748;28;20100;-69
2023/08/08 12:59:26;;;;;;;1.25;0.75;;;;;;;28.68;33.29;100200.66;5055049;28;20488;-68
2023/08/08 13:01:52;;;;;;;1.65;0.90;;;;;;;28.85;33.14;100200.97;5055212;28;20475;-68
2023/08/08 13:04:17;;;;;;;1.65;0.80;;;;;;;28.62;32.50;100196.34;5055354;28;20029;-68
2023/08/08 13:06:43;;;;;;;1.80;0.90;;;;;;;28.36;34.15;100182.16;5055152;28;20474;-68
2023/08/08 13:09:08;;;;;;;1.65;1.10;;;;;;;27.82;32.82;100189.56;5056568;28;20033;-68
2023/08/08 13:11:33;;;;;;;1.95;0.80;;;;;;;28.68;32.89;100173.25;5075098;28;20399;-68
2023/08/08 13:13:59;;;;;;;3.08;0.90;;;;;;;28.91;33.72;100175.16;5075085;28;20036;-69
2023/08/08 13:16:24;;;;;;;0.85;0.80;;;;;;;29.03;32.92;100177.44;5074915;28;20510;-69
2023/08/08 13:18:50;;;;;;;1.92;0.73;;;;;;;28.79;32.06;100171.19;5074698;28;20068;-69
2023/08/08 13:21:16;;;;;;;4.35;1.02;;;;;;;28.50;33.93;100179.53;5074878;28;20123;-69
2023/08/08 13:23:42;;;;;;;1.00;0.75;;;;;;;27.90;35.26;100187.31;5074869;28;20052;-70
2023/08/08 13:26:07;;;;;;;1.13;0.70;;;;;;;27.71;35.00;100181.75;5074810;28;20033;-70
2023/08/08 13:28:33;;;;;;;1.33;0.85;;;;;;;27.22;34.89;100180.78;5074432;28;20040;-68
2023/08/08 13:30:58;;;;;;;2.92;0.80;;;;;;;27.23;35.15;100187.06;5074690;28;20036;-68
2023/08/08 13:33:24;;;;;;;2.30;1.15;;;;;;;27.22;35.09;100180.78;5074736;28;20040;-70
2023/08/08 13:35:49;;;;;;;1.05;0.70;;;;;;;27.13;35.22;100182.50;5074568;28;20456;-69
2023/08/08 13:38:14;;;;;;;1.50;0.80;;;;;;;27.08;34.90;100174.31;5074411;28;20051;-69
2023/08/08 13:40:43;;;;;;;1.17;0.80;;;;;;;26.70;35.17;100173.97;5074638;28;20032;-69
2023/08/08 13:43:09;;;;;;;0.85;0.50;;;;;;;26.10;35.75;100161.41;5074570;28;20047;-68
2023/08/08 13:45:34;;;;;;;1.35;0.70;;;;;;;25.86;35.95;100178.34;5074370;28;20104;-70
2023/08/08 13:48:00;;;;;;;0.90;0.80;;;;;;;25.60;37.72;100176.72;5074265;28;20621;-68
2023/08/08 13:50:25;;;;;;;0.98;0.70;;;;;;;25.64;38.47;100173.19;5074327;28;20071;-69
2023/08/08 13:52:52;;;;;;;2.75;0.80;;;;;;;25.52;37.41;100180.84;5074167;28;20152;-69
2023/08/08 13:55:18;;;;;;;1.40;0.80;;;;;;;25.32;36.20;100165.31;5074097;28;20521;-69
2023/08/08 13:57:44;;;;;;;1.90;0.90;;;;;;;25.15;38.70;100167.47;5074300;28;20036;-69
2023/08/08 14:00:12;;;;;;;1.20;0.73;;;;;;;25.35;38.88;100156.56;5073967;28;20040;-69
2023/08/08 14:02:38;;;;;;;1.08;0.70;;;;;;;25.33;39.03;100164.19;5074107;28;20036;-69
2023/08/08 14:05:06;;;;;;;1.95;0.80;;;;;;;25.07;39.82;100163.38;5074173;28;20039;-68
2023/08/08 14:07:33;;;;;;;1.20;0.80;;;;;;;25.16;39.17;100159.00;5074385;28;20380;-68
2023/08/08 14:09:59;;;;;;;2.05;0.93;;;;;;;24.81;38.79;100167.13;5073832;28;20081;-68
2023/08/08 14:12:24;;;;;;;1.20;0.77;;;;;;;24.69;38.31;100161.91;5074078;28;20037;-69
2023/08/08 14:14:50;;;;;;;2.80;0.88;;;;;;;24.76;38.54;100167.91;5074157;28;20020;-70
2023/08/08 14:17:15;;;;;;;1.77;0.70;;;;;;;24.37;37.82;100162.06;5073768;28;20040;-68
2023/08/08 14:19:40;;;;;;;1.48;0.80;;;;;;;24.44;40.06;100164.53;5073638;28;20044;-70
2023/08/08 14:22:06;;;;;;;1.13;1.02;;;;;;;24.36;38.70;100160.44;5073701;28;20028;-68
2023/08/08 14:24:31;;;;;;;1.27;0.82;;;;;;;24.21;38.22;100158.44;5073809;28;20040;-70
2023/08/08 14:26:57;;;;;;;1.48;0.90;;;;;;;24.33;38.54;100158.22;5073690;28;20029;-67
2023/08/08 14:29:22;;;;;;;1.45;0.90;;;;;;;24.47;39.18;100158.59;5073299;28;20464;-67
2023/08/08 14:31:47;;;;;;;1.05;0.75;;;;;;;24.33;39.70;100158.22;5073455;28;20048;-68
2023/08/08 14:34:14;;;;;;;1.23;0.73;;;;;;;24.37;40.36;100153.91;5073563;28;20064;-67
2023/08/08 14:36:40;;;;;;;1.13;0.70;;;;;;;24.20;39.11;100162.25;5073697;28;20033;-67
2023/08/08 14:39:05;;;;;;;2.47;1.13;;;;;;;23.87;39.02;100165.34;5073242;28;20536;-67
2023/08/08 14:41:30;;;;;;;1.48;0.63;;;;;;;23.83;38.99;100170.47;5073395;28;20039;-67
2023/08/08 14:43:56;;;;;;;1.42;0.77;;;;;;;23.78;39.52;100167.72;5073460;28;20033;-67
2023/08/08 14:46:21;;;;;;;2.33;1.40;;;;;;;23.95;40.14;100162.13;5073327;28;20041;-68
2023/08/08 14:48:47;;;;;;;0.90;0.60;;;;;;;23.98;39.19;100148.81;5073051;28;20055;-67
2023/08/08 14:51:16;;;;;;;2.05;0.90;;;;;;;23.88;39.68;100151.47;5073204;28;20510;-67
2023/08/08 14:53:41;;;;;;;2.38;1.20;;;;;;;23.86;38.94;100145.47;5073206;28;20626;-68
2023/08/08 14:56:08;;;;;;;2.20;0.90;;;;;;;23.95;39.12;100141.19;5073109;28;20028;-67
2023/08/08 14:58:34;;;;;;;1.95;0.95;;;;;;;24.04;40.64;100145.03;5072746;28;20064;-68
2023/08/08 15:01:01;;;;;;;1.15;0.80;;;;;;;24.06;39.07;100140.16;5073073;28;20507;-67
2023/08/08 15:03:26;;;;;;;0.80;0.80;;;;;;;24.08;39.61;100151.59;5072972;28;20057;-67
2023/08/08 15:05:51;;;;;;;1.60;0.63;;;;;;;23.92;40.13;100138.16;5072052;28;20032;-67
2023/08/08 15:08:18;;;;;;;2.30;1.10;;;;;;;23.66;39.23;100143.44;5072688;28;20119;-67
2023/08/08 15:10:44;;;;;;;2.05;1.00;;;;;;;23.76;40.78;100153.56;5072829;28;20123;-66
2023/08/08 15:13:09;;;;;;;1.25;0.93;;;;;;;23.70;40.26;100150.00;5072760;28;20127;-66
2023/08/08 15:15:35;;;;;;;1.60;0.90;;;;;;;23.80;40.70;100152.81;5072597;28;20132;-66
2023/08/08 15:18:00;;;;;;;1.85;1.25;;;;;;;23.92;40.23;100146.31;5066418;28;20036;-66
2023/08/08 15:20:26;;;;;;;6.57;1.13;;;;;;;23.78;40.84;100138.63;5061550;28;20043;-66
2023/08/08 15:22:51;;;;;;;1.80;0.77;;;;;;;23.60;41.60;100135.47;5063297;28;20400;-66
2023/08/08 15:25:17;;;;;;;2.30;1.10;;;;;;;23.46;41.92;100149.53;5061517;28;20116;-66
2023/08/08 15:27:43;;;;;;;1.00;0.75;;;;;;;23.52;41.00;100147.66;5062101;28;20479;-66
2023/08/08 15:30:09;;;;;;;0.82;0.70;;;;;;;23.16;40.35;100146.56;5062991;28;20036;-66
2023/08/08 15:32:34;;;;;;;1.83;0.90;;;;;;;23.13;42.14;100161.47;5060296;28;20466;-66
2023/08/08 15:34:59;;;;;;;2.35;1.10;;;;;;;23.04;41.44;100152.16;5061892;28;20025;-66
2023/08/08 15:37:25;;;;;;;1.02;0.80;;;;;;;23.06;40.74;100150.00;5061389;28;20509;-67
2023/08/08 15:39:50;;;;;;;1.75;1.13;;;;;;;23.00;41.88;100151.84;5062685;28;20040;-66
2023/08/08 15:42:15;;;;;;;1.35;1.00;;;;;;;22.90;41.99;100145.53;5061328;28;20124;-67